createdAt,value
2022-09-24T00:00:08.789Z,16.58
2022-09-24T00:01:10.759Z,16.40
2022-09-24T00:02:08.811Z,16.43
2022-09-24T00:03:08.722Z,16.49
2022-09-24T00:04:08.722Z,16.40
2022-09-24T00:05:08.581Z,16.39
2022-09-24T00:06:08.543Z,16.47
2022-09-24T00:07:08.502Z,16.44
2022-09-24T00:08:08.457Z,16.54
2022-09-24T00:09:08.415Z,16.43
2022-09-24T00:10:08.390Z,16.44
2022-09-24T00:11:08.328Z,16.46
2022-09-24T00:12:08.285Z,16.46
2022-09-24T00:13:08.241Z,16.40
2022-09-24T00:14:08.307Z,16.37
2022-09-24T00:15:08.168Z,16.44
2022-09-24T00:16:08.204Z,16.46
2022-09-24T00:17:08.077Z,16.43
2022-09-24T00:18:08.034Z,16.34
2022-09-24T00:19:07.997Z,16.44
2022-09-24T00:20:07.946Z,16.25
2022-09-24T00:21:07.909Z,16.18
2022-09-24T00:22:07.872Z,16.16
2022-09-24T00:23:07.819Z,16.18
2022-09-24T00:24:07.770Z,16.13
2022-09-24T00:25:07.738Z,16.25
2022-09-24T00:26:07.698Z,16.17
2022-09-24T00:27:07.826Z,16.18
2022-09-24T00:28:07.609Z,16.24
2022-09-24T00:29:07.565Z,16.21
2022-09-24T00:30:07.519Z,16.17
2022-09-24T00:31:07.594Z,16.28
2022-09-24T00:32:07.436Z,16.26
2022-09-24T00:33:07.405Z,16.25
2022-09-24T00:34:07.473Z,16.28
2022-09-24T00:35:07.307Z,16.32
2022-09-24T00:36:07.265Z,16.40
2022-09-24T00:37:07.401Z,16.39
2022-09-24T00:38:07.182Z,16.41
2022-09-24T00:39:07.139Z,16.44
2022-09-24T00:40:07.129Z,16.40
2022-09-24T00:41:07.055Z,16.47
2022-09-24T00:42:07.012Z,16.47
2022-09-24T00:43:06.981Z,16.59
2022-09-24T00:44:06.942Z,16.54
2022-09-24T00:45:06.926Z,16.58
2022-09-24T00:46:06.842Z,16.65
2022-09-24T00:47:06.856Z,16.58
2022-09-24T00:48:06.755Z,16.59
2022-09-24T00:49:06.713Z,16.58
2022-09-24T00:50:06.686Z,16.54
2022-09-24T00:51:06.643Z,16.57
2022-09-24T00:52:06.586Z,16.50
2022-09-24T00:53:06.545Z,16.39
2022-09-24T00:54:06.539Z,16.44
2022-09-24T00:55:06.456Z,16.32
2022-09-24T00:56:06.417Z,16.34
2022-09-24T00:57:06.394Z,16.26
2022-09-24T00:58:06.324Z,16.18
2022-09-24T00:59:06.285Z,16.26
2022-09-24T01:00:06.260Z,16.21
2022-09-24T01:01:06.251Z,16.25
2022-09-24T01:02:06.184Z,16.22
2022-09-24T01:03:06.129Z,16.16
2022-09-24T01:04:06.077Z,16.18
2022-09-24T01:05:06.036Z,16.21
2022-09-24T01:06:06.018Z,16.24
2022-09-24T01:07:05.952Z,16.09
2022-09-24T01:08:05.903Z,16.16
2022-09-24T01:09:05.861Z,16.16
2022-09-24T01:10:05.816Z,16.13
2022-09-24T01:11:05.782Z,16.13
2022-09-24T01:12:05.747Z,16.06
2022-09-24T01:13:05.690Z,16.18
2022-09-24T01:14:05.652Z,16.21
2022-09-24T01:15:05.610Z,16.22
2022-09-24T01:16:05.625Z,16.22
2022-09-24T01:17:05.521Z,16.10
2022-09-24T01:18:05.500Z,16.12
2022-09-24T01:19:05.435Z,16.21
2022-09-24T01:20:05.395Z,16.25
2022-09-24T01:21:05.367Z,16.31
2022-09-24T01:22:05.309Z,16.40
2022-09-24T01:23:05.271Z,16.43
2022-09-24T01:24:05.262Z,16.39
2022-09-24T01:25:05.183Z,16.40
2022-09-24T01:26:05.143Z,16.39
2022-09-24T01:27:05.099Z,16.46
2022-09-24T01:28:05.054Z,16.43
2022-09-24T01:29:05.016Z,16.41
2022-09-24T01:30:04.988Z,16.47
2022-09-24T01:31:04.977Z,16.44
2022-09-24T01:32:04.881Z,16.44
2022-09-24T01:33:04.840Z,16.43
2022-09-24T01:34:04.846Z,16.51
2022-09-24T01:35:04.756Z,16.44
2022-09-24T01:36:04.724Z,16.50
2022-09-24T01:37:04.673Z,16.50
2022-09-24T01:38:04.631Z,16.46
2022-09-24T01:39:04.591Z,16.43
2022-09-24T01:40:04.540Z,16.57
2022-09-24T01:41:04.519Z,16.54
2022-09-24T01:42:04.461Z,16.65
2022-09-24T01:43:04.419Z,16.68
2022-09-24T01:44:04.417Z,16.69
2022-09-24T01:45:04.335Z,16.72
2022-09-24T01:46:04.309Z,16.65
2022-09-24T01:47:04.287Z,16.65
2022-09-24T01:48:04.204Z,16.55
2022-09-24T01:49:04.162Z,16.62
2022-09-24T01:50:04.122Z,16.50
2022-09-24T01:51:04.093Z,16.46
2022-09-24T01:52:04.032Z,16.37
2022-09-24T01:53:03.990Z,16.47
2022-09-24T01:54:04.029Z,16.50
2022-09-24T01:55:03.906Z,16.57
2022-09-24T01:56:03.883Z,16.54
2022-09-24T01:57:03.820Z,16.40
2022-09-24T01:58:03.782Z,16.51
2022-09-24T01:59:03.740Z,16.61
2022-09-24T02:00:03.697Z,16.51
2022-09-24T02:01:03.721Z,16.46
2022-09-24T02:02:03.683Z,16.55
2022-09-24T02:03:03.569Z,16.59
2022-09-24T02:04:03.527Z,16.69
2022-09-24T02:05:03.484Z,16.68
2022-09-24T02:06:03.442Z,16.62
2022-09-24T02:07:03.428Z,16.64
2022-09-24T02:08:03.355Z,16.65
2022-09-24T02:09:03.312Z,16.74
2022-09-24T02:10:03.275Z,16.82
2022-09-24T02:11:03.231Z,16.74
2022-09-24T02:12:03.185Z,16.74
2022-09-24T02:13:03.178Z,16.83
2022-09-24T02:14:03.100Z,16.74
2022-09-24T02:15:03.062Z,16.76
2022-09-24T02:16:03.083Z,16.79
2022-09-24T02:17:02.984Z,16.80
2022-09-24T02:18:02.932Z,16.84
2022-09-24T02:19:02.917Z,16.86
2022-09-24T02:20:02.847Z,16.84
2022-09-24T02:21:02.810Z,16.82
2022-09-24T02:22:02.765Z,16.76
2022-09-24T02:23:02.722Z,16.77
2022-09-24T02:24:02.679Z,16.84
2022-09-24T02:25:02.653Z,16.82
2022-09-24T02:26:02.603Z,16.83
2022-09-24T02:27:02.570Z,16.83
2022-09-24T02:28:02.509Z,16.79
2022-09-24T02:29:02.478Z,16.83
2022-09-24T02:30:02.423Z,16.84
2022-09-24T02:31:02.446Z,16.86
2022-09-24T02:32:02.345Z,16.80
2022-09-24T02:33:02.309Z,16.77
2022-09-24T02:34:02.257Z,16.77
2022-09-24T02:35:02.215Z,16.80
2022-09-24T02:36:02.171Z,16.80
2022-09-24T02:37:02.148Z,16.82
2022-09-24T02:38:06.146Z,16.74
2022-09-24T02:39:02.043Z,16.76
2022-09-24T02:40:01.999Z,16.72
2022-09-24T02:41:01.957Z,16.76
2022-09-24T02:42:01.938Z,16.74
2022-09-24T02:43:01.877Z,16.66
2022-09-24T02:44:01.960Z,16.76
2022-09-24T02:45:01.789Z,16.69
2022-09-24T02:46:01.838Z,16.66
2022-09-24T02:47:01.705Z,16.64
2022-09-24T02:48:01.842Z,16.72
2022-09-24T02:49:01.622Z,16.72
2022-09-24T02:50:01.579Z,16.74
2022-09-24T02:51:01.537Z,16.68
2022-09-24T02:52:01.494Z,16.73
2022-09-24T02:53:01.453Z,16.68
2022-09-24T02:54:01.481Z,16.68
2022-09-24T02:55:01.374Z,16.66
2022-09-24T02:56:01.327Z,16.74
2022-09-24T02:57:01.286Z,16.62
2022-09-24T02:58:01.238Z,16.66
2022-09-24T02:59:01.196Z,16.68
2022-09-24T03:00:01.198Z,16.65
2022-09-24T03:01:01.113Z,16.61
2022-09-24T03:02:01.194Z,16.57
2022-09-24T03:03:01.100Z,16.54
2022-09-24T03:04:01.053Z,16.58
2022-09-24T03:05:00.950Z,16.50
2022-09-24T03:06:00.910Z,16.46
2022-09-24T03:07:00.856Z,16.46
2022-09-24T03:08:00.810Z,16.59
2022-09-24T03:09:00.772Z,16.55
2022-09-24T03:10:00.730Z,16.58
2022-09-24T03:11:00.686Z,16.58
2022-09-24T03:12:00.699Z,16.59
2022-09-24T03:13:00.598Z,16.66
2022-09-24T03:14:00.556Z,16.59
2022-09-24T03:15:00.515Z,16.68
2022-09-24T03:16:00.522Z,16.62
2022-09-24T03:17:00.428Z,16.64
2022-09-24T03:18:00.406Z,16.73
2022-09-24T03:19:00.348Z,16.76
2022-09-24T03:20:00.329Z,16.66
2022-09-24T03:21:00.262Z,16.66
2022-09-24T03:22:00.222Z,16.65
2022-09-24T03:23:00.177Z,16.69
2022-09-24T03:24:00.134Z,16.66
2022-09-24T03:25:00.111Z,16.66
2022-09-24T03:26:00.062Z,16.62
2022-09-24T03:27:00.008Z,16.66
2022-09-24T03:27:59.960Z,16.66
2022-09-24T03:28:59.919Z,16.68
2022-09-24T03:29:59.880Z,16.57
2022-09-24T03:30:59.875Z,16.76
2022-09-24T03:31:59.821Z,16.64
2022-09-24T03:32:59.752Z,16.68
2022-09-24T03:33:59.707Z,16.65
2022-09-24T03:34:59.664Z,16.65
2022-09-24T03:35:59.620Z,16.64
2022-09-24T03:36:59.573Z,16.61
2022-09-24T03:37:59.556Z,16.61
2022-09-24T03:38:59.492Z,16.57
2022-09-24T03:39:59.446Z,16.54
2022-09-24T03:40:59.456Z,16.51
2022-09-24T03:41:59.366Z,16.58
2022-09-24T03:42:59.321Z,16.55
2022-09-24T03:43:59.460Z,16.51
2022-09-24T03:44:59.239Z,16.47
2022-09-24T03:45:59.195Z,16.57
2022-09-24T03:46:59.157Z,16.51
2022-09-24T03:47:59.107Z,16.58
2022-09-24T03:48:59.069Z,16.57
2022-09-24T03:49:59.043Z,16.55
2022-09-24T03:50:58.985Z,16.55
2022-09-24T03:51:58.937Z,16.59
2022-09-24T03:52:58.898Z,16.58
2022-09-24T03:53:58.852Z,16.57
2022-09-24T03:54:58.815Z,16.54
2022-09-24T03:55:58.790Z,16.61
2022-09-24T03:56:58.731Z,16.55
2022-09-24T03:57:58.691Z,16.54
2022-09-24T03:58:58.637Z,16.58
2022-09-24T03:59:58.600Z,16.58
2022-09-24T04:00:58.558Z,16.57
2022-09-24T04:01:58.576Z,16.51
2022-09-24T04:02:58.525Z,16.62
2022-09-24T04:03:58.427Z,16.59
2022-09-24T04:04:58.384Z,16.54
2022-09-24T04:05:58.344Z,16.59
2022-09-24T04:06:58.329Z,16.59
2022-09-24T04:07:58.258Z,16.55
2022-09-24T04:08:58.216Z,16.65
2022-09-24T04:09:58.175Z,16.65
2022-09-24T04:10:58.132Z,16.51
2022-09-24T04:11:58.092Z,16.59
2022-09-24T04:12:58.231Z,16.62
2022-09-24T04:13:58.003Z,16.61
2022-09-24T04:14:57.965Z,16.59
2022-09-24T04:15:57.979Z,16.55
2022-09-24T04:16:57.874Z,16.54
2022-09-24T04:17:57.833Z,16.39
2022-09-24T04:18:57.968Z,16.44
2022-09-24T04:19:57.750Z,16.40
2022-09-24T04:20:57.706Z,16.41
2022-09-24T04:21:57.666Z,16.39
2022-09-24T04:22:57.627Z,16.37
2022-09-24T04:23:57.579Z,16.36
2022-09-24T04:24:57.566Z,16.32
2022-09-24T04:25:57.491Z,16.36
2022-09-24T04:26:57.455Z,16.32
2022-09-24T04:27:57.411Z,16.34
2022-09-24T04:28:57.361Z,16.34
2022-09-24T04:29:58.275Z,16.36
2022-09-24T04:30:57.376Z,16.31
2022-09-24T04:31:57.236Z,16.29
2022-09-24T04:32:57.194Z,16.28
2022-09-24T04:33:57.153Z,16.28
2022-09-24T04:34:57.111Z,16.21
2022-09-24T04:35:57.077Z,16.25
2022-09-24T04:36:57.034Z,16.31
2022-09-24T04:37:56.982Z,16.37
2022-09-24T04:38:56.941Z,16.37
2022-09-24T04:39:56.896Z,16.36
2022-09-24T04:40:56.875Z,16.37
2022-09-24T04:41:56.921Z,16.40
2022-09-24T04:42:56.771Z,16.29
2022-09-24T04:43:56.723Z,16.28
2022-09-24T04:44:56.679Z,16.22
2022-09-24T04:45:56.640Z,16.26
2022-09-24T04:46:56.633Z,16.26
2022-09-24T04:47:56.571Z,16.24
2022-09-24T04:48:56.510Z,16.22
2022-09-24T04:49:56.471Z,16.24
2022-09-24T04:50:56.424Z,16.10
2022-09-24T04:51:56.382Z,16.21
2022-09-24T04:52:56.343Z,16.17
2022-09-24T04:53:56.306Z,16.18
2022-09-24T04:54:56.253Z,16.13
2022-09-24T04:55:56.214Z,16.10
2022-09-24T04:56:56.168Z,16.09
2022-09-24T04:57:56.126Z,16.12
2022-09-24T04:58:56.101Z,16.16
2022-09-24T04:59:56.039Z,16.09
2022-09-24T05:00:55.996Z,16.13
2022-09-24T05:01:56.046Z,16.24
2022-09-24T05:02:56.149Z,16.18
2022-09-24T05:03:55.867Z,16.22
2022-09-24T05:04:55.835Z,16.25
2022-09-24T05:05:55.782Z,16.26
2022-09-24T05:06:55.762Z,16.18
2022-09-24T05:07:55.699Z,16.24
2022-09-24T05:08:55.656Z,16.21
2022-09-24T05:09:55.616Z,16.21
2022-09-24T05:10:55.567Z,16.10
2022-09-24T05:11:55.526Z,16.17
2022-09-24T05:12:55.503Z,16.24
2022-09-24T05:13:55.447Z,16.26
2022-09-24T05:14:55.401Z,16.18
2022-09-24T05:15:55.407Z,16.25
2022-09-24T05:16:55.310Z,16.29
2022-09-24T05:17:55.270Z,16.32
2022-09-24T05:18:55.255Z,16.31
2022-09-24T05:19:55.185Z,16.26
2022-09-24T05:20:55.143Z,16.29
2022-09-24T05:21:55.100Z,16.29
2022-09-24T05:22:55.058Z,16.22
2022-09-24T05:23:55.021Z,16.28
2022-09-24T05:24:54.996Z,16.28
2022-09-24T05:25:54.930Z,16.32
2022-09-24T05:26:54.899Z,16.32
2022-09-24T05:27:54.888Z,16.31
2022-09-24T05:28:54.800Z,16.32
2022-09-24T05:29:54.756Z,16.39
2022-09-24T05:30:54.763Z,16.31
2022-09-24T05:31:54.693Z,16.31
2022-09-24T05:32:54.633Z,16.34
2022-09-24T05:33:54.587Z,16.31
2022-09-24T05:34:54.547Z,16.36
2022-09-24T05:35:54.501Z,16.32
2022-09-24T05:36:54.459Z,16.37
2022-09-24T05:37:54.466Z,16.40
2022-09-24T05:38:54.375Z,16.34
2022-09-24T05:39:54.331Z,16.40
2022-09-24T05:40:54.350Z,16.44
2022-09-24T05:41:54.251Z,16.29
2022-09-24T05:42:54.204Z,16.34
2022-09-24T05:43:54.174Z,16.32
2022-09-24T05:44:54.117Z,16.32
2022-09-24T05:45:54.074Z,16.36
2022-09-24T05:46:54.073Z,16.26
2022-09-24T05:47:53.988Z,16.25
2022-09-24T05:48:53.996Z,16.39
2022-09-24T05:49:53.903Z,16.37
2022-09-24T05:50:53.860Z,16.31
2022-09-24T05:51:53.820Z,16.28
2022-09-24T05:52:53.773Z,16.32
2022-09-24T05:53:53.735Z,16.36
2022-09-24T05:54:53.717Z,16.44
2022-09-24T05:55:53.649Z,16.40
2022-09-24T05:56:53.609Z,16.40
2022-09-24T05:57:53.562Z,16.43
2022-09-24T05:58:53.521Z,16.43
2022-09-24T05:59:53.478Z,16.49
2022-09-24T06:03:46.386Z,16.41
2022-09-24T06:04:46.312Z,16.28
2022-09-24T06:05:46.271Z,16.31
2022-09-24T06:06:46.223Z,16.21
2022-09-24T06:07:46.186Z,16.17
2022-09-24T06:08:46.141Z,16.18
2022-09-24T06:09:46.118Z,16.17
2022-09-24T06:10:46.053Z,16.17
2022-09-24T06:11:46.004Z,16.25
2022-09-24T06:12:45.971Z,16.17
2022-09-24T06:13:45.924Z,16.21
2022-09-24T06:14:45.884Z,16.22
2022-09-24T06:15:45.960Z,16.29
2022-09-24T06:16:45.796Z,16.32
2022-09-24T06:17:45.755Z,16.34
2022-09-24T06:18:45.709Z,16.41
2022-09-24T06:19:45.674Z,16.41
2022-09-24T06:20:45.622Z,16.39
2022-09-24T06:21:45.600Z,16.40
2022-09-24T06:22:45.539Z,16.44
2022-09-24T06:23:45.493Z,16.41
2022-09-24T06:24:45.455Z,16.50
2022-09-24T06:25:45.412Z,16.57
2022-09-24T06:26:45.365Z,16.58
2022-09-24T06:27:45.363Z,16.55
2022-09-24T06:28:45.280Z,16.62
2022-09-24T06:29:45.243Z,16.62
2022-09-24T06:30:45.199Z,16.66
2022-09-24T06:31:45.243Z,16.66
2022-09-24T06:32:45.116Z,16.65
2022-09-24T06:33:45.085Z,16.73
2022-09-24T06:34:45.027Z,16.76
2022-09-24T06:35:44.982Z,16.61
2022-09-24T06:36:44.945Z,16.76
2022-09-24T06:37:44.900Z,16.76
2022-09-24T06:38:44.869Z,16.79
2022-09-24T06:39:44.814Z,16.82
2022-09-24T06:40:44.784Z,16.80
2022-09-24T06:41:44.731Z,16.77
2022-09-24T06:42:44.684Z,16.82
2022-09-24T06:43:44.648Z,16.77
2022-09-24T06:44:44.618Z,16.79
2022-09-24T06:45:44.561Z,16.77
2022-09-24T06:46:44.565Z,16.74
2022-09-24T06:47:44.474Z,16.79
2022-09-24T06:48:44.583Z,16.77
2022-09-24T06:49:44.393Z,16.83
2022-09-24T06:50:44.354Z,16.82
2022-09-24T06:51:44.306Z,16.74
2022-09-24T06:52:44.293Z,16.84
2022-09-24T06:53:44.227Z,16.86
2022-09-24T06:54:44.211Z,16.94
2022-09-24T06:55:44.138Z,16.98
2022-09-24T06:56:44.115Z,16.97
2022-09-24T06:57:44.055Z,17.02
2022-09-24T06:58:44.024Z,17.07
2022-09-24T06:59:43.969Z,17.04
2022-09-24T07:00:43.972Z,17.10
2022-09-24T07:01:44.014Z,17.14
2022-09-24T07:04:15.848Z,17.28
2022-09-24T07:05:15.806Z,17.27
2022-09-24T07:06:15.778Z,17.38
2022-09-24T07:07:15.700Z,17.46
2022-09-24T07:08:15.658Z,17.49
2022-09-24T07:10:47.694Z,17.59
2022-09-24T07:11:47.297Z,17.66
2022-09-24T07:12:47.779Z,17.69
2022-09-24T07:13:47.220Z,17.65
2022-09-24T07:14:47.394Z,17.76
2022-09-24T07:15:47.226Z,17.75
2022-09-24T07:16:47.585Z,17.82
2022-09-24T07:17:47.053Z,17.87
2022-09-24T07:18:47.015Z,17.97
2022-09-24T07:19:46.985Z,18.00
2022-09-24T07:20:47.148Z,18.02
2022-09-24T07:21:46.966Z,18.12
2022-09-24T07:22:47.071Z,18.16
2022-09-24T07:23:46.808Z,18.15
2022-09-24T07:24:46.780Z,18.21
2022-09-24T07:25:46.742Z,18.19
2022-09-24T07:26:46.789Z,18.27
2022-09-24T07:27:46.996Z,18.23
2022-09-24T07:28:46.957Z,18.33
2022-09-24T07:29:46.603Z,18.37
2022-09-24T07:30:46.512Z,18.33
2022-09-24T07:31:46.696Z,18.26
2022-09-24T07:32:46.440Z,18.41
2022-09-24T07:33:46.421Z,18.34
2022-09-24T07:34:46.639Z,18.36
2022-09-24T07:35:46.307Z,18.37
2022-09-24T07:36:46.448Z,18.41
2022-09-24T07:37:46.244Z,18.37
2022-09-24T07:38:47.279Z,18.48
2022-09-24T07:39:46.153Z,18.48
2022-09-24T07:40:46.591Z,18.55
2022-09-24T07:41:46.278Z,18.49
2022-09-24T07:42:46.022Z,18.48
2022-09-24T07:43:46.097Z,18.51
2022-09-24T07:44:45.946Z,18.58
2022-09-24T07:45:46.102Z,18.68
2022-09-24T07:46:45.929Z,18.63
2022-09-24T07:47:45.819Z,18.66
2022-09-24T07:48:45.977Z,18.68
2022-09-24T07:49:45.930Z,18.67
2022-09-24T07:50:45.702Z,18.71
2022-09-24T07:51:45.750Z,18.68
2022-09-24T07:52:45.624Z,18.73
2022-09-24T07:53:45.576Z,18.70
2022-09-24T07:54:45.971Z,18.70
2022-09-24T07:55:45.497Z,18.61
2022-09-24T07:56:45.566Z,18.61
2022-09-24T07:57:45.406Z,18.63
2022-09-24T07:58:45.374Z,18.61
2022-09-24T07:59:45.324Z,18.60
2022-09-24T08:00:46.619Z,18.60
2022-09-24T08:01:45.256Z,18.63
2022-09-24T08:02:45.414Z,18.57
2022-09-24T08:03:45.208Z,18.60
2022-09-24T08:04:45.119Z,18.57
2022-09-24T08:05:45.343Z,18.64
2022-09-24T08:06:47.513Z,18.74
2022-09-24T08:07:44.998Z,18.81
2022-09-24T08:08:45.041Z,18.81
2022-09-24T08:09:44.916Z,18.88
2022-09-24T08:10:44.877Z,18.91
2022-09-24T08:11:45.027Z,18.88
2022-09-24T08:14:16.762Z,18.94
2022-09-24T08:15:17.745Z,19.07
2022-09-24T08:16:16.774Z,18.92
2022-09-24T08:17:16.488Z,18.92
2022-09-24T08:18:17.817Z,18.97
2022-09-24T08:19:16.387Z,18.94
2022-09-24T08:20:17.698Z,18.89
2022-09-24T08:21:16.290Z,18.88
2022-09-24T08:22:16.256Z,19.00
2022-09-24T08:23:16.235Z,18.89
2022-09-24T08:24:16.391Z,18.94
2022-09-24T08:25:16.269Z,18.83
2022-09-24T08:26:16.208Z,18.88
2022-09-24T08:27:17.508Z,18.97
2022-09-24T08:28:16.223Z,18.97
2022-09-24T08:29:16.283Z,18.97
2022-09-24T08:30:16.028Z,18.88
2022-09-24T08:31:16.060Z,18.96
2022-09-24T08:32:25.004Z,18.96
2022-09-24T08:33:25.076Z,18.92
2022-09-24T08:34:25.094Z,19.01
2022-09-24T08:36:19.137Z,18.97
2022-09-24T08:36:19.956Z,18.97
2022-09-24T08:37:27.661Z,18.94
2022-09-24T08:38:19.872Z,19.07
2022-09-24T08:39:19.829Z,18.96
2022-09-24T08:40:19.861Z,18.97
2022-09-24T08:41:19.770Z,18.96
2022-09-24T08:42:19.708Z,18.98
2022-09-24T08:43:19.667Z,18.85
2022-09-24T08:44:19.629Z,18.96
2022-09-24T08:45:19.589Z,18.85
2022-09-24T08:46:19.563Z,18.88
2022-09-24T08:47:19.581Z,18.92
2022-09-24T08:48:19.463Z,18.94
2022-09-24T08:49:19.422Z,18.88
2022-09-24T08:50:19.393Z,18.91
2022-09-24T08:51:19.336Z,18.92
2022-09-24T08:52:19.294Z,18.96
2022-09-24T08:53:19.270Z,18.91
2022-09-24T08:54:19.217Z,18.98
2022-09-24T08:55:19.174Z,19.05
2022-09-24T08:56:19.133Z,18.97
2022-09-24T08:57:19.093Z,19.07
2022-09-24T08:58:19.051Z,19.17
2022-09-24T08:59:19.028Z,19.15
2022-09-24T09:00:19.005Z,19.09
2022-09-24T09:01:18.978Z,19.19
2022-09-24T09:02:19.009Z,19.12
2022-09-24T09:03:18.856Z,19.12
2022-09-24T09:04:18.807Z,19.11
2022-09-24T09:05:18.784Z,19.04
2022-09-24T09:06:18.727Z,19.09
2022-09-24T09:07:18.682Z,18.98
2022-09-24T09:08:45.107Z,18.92
2022-09-24T09:09:18.747Z,18.89
2022-09-24T09:10:18.636Z,19.01
2022-09-24T09:11:18.530Z,18.89
2022-09-24T09:12:18.477Z,18.82
2022-09-24T09:13:19.169Z,18.86
2022-09-24T09:14:18.395Z,18.81
2022-09-24T09:15:18.356Z,18.82
2022-09-24T09:16:18.408Z,18.76
2022-09-24T09:17:18.288Z,18.73
2022-09-24T09:18:18.400Z,18.66
2022-09-24T09:19:18.195Z,18.52
2022-09-24T09:20:18.176Z,18.51
2022-09-24T09:21:18.105Z,18.45
2022-09-24T09:22:18.064Z,18.39
2022-09-24T09:23:18.027Z,18.39
2022-09-24T09:24:18.015Z,18.27
2022-09-24T09:25:17.941Z,18.15
2022-09-24T09:26:17.903Z,18.06
2022-09-24T09:27:17.860Z,18.00
2022-09-24T09:28:17.818Z,17.94
2022-09-24T09:29:17.777Z,17.86
2022-09-24T09:30:17.842Z,17.76
2022-09-24T09:31:17.725Z,17.73
2022-09-24T09:32:17.645Z,17.72
2022-09-24T09:33:17.602Z,17.65
2022-09-24T09:34:17.568Z,17.53
2022-09-24T09:35:17.524Z,17.52
2022-09-24T09:36:17.502Z,17.47
2022-09-24T09:37:20.870Z,17.37
2022-09-24T09:38:17.394Z,17.41
2022-09-24T09:39:17.351Z,17.44
2022-09-24T09:40:17.428Z,17.37
2022-09-24T09:41:17.270Z,17.30
2022-09-24T09:42:17.245Z,17.22
2022-09-24T09:43:17.185Z,17.20
2022-09-24T09:44:17.148Z,17.23
2022-09-24T09:45:17.103Z,17.22
2022-09-24T09:46:17.128Z,17.22
2022-09-24T09:47:17.026Z,17.23
2022-09-24T09:48:16.970Z,17.27
2022-09-24T09:49:16.928Z,17.24
2022-09-24T09:50:16.891Z,17.30
2022-09-24T09:51:19.995Z,17.41
2022-09-24T09:52:16.890Z,17.42
2022-09-24T09:53:16.763Z,17.42
2022-09-24T09:54:16.720Z,17.49
2022-09-24T09:55:16.672Z,17.49
2022-09-24T09:56:16.634Z,17.47
2022-09-24T09:57:16.591Z,17.37
2022-09-24T09:58:16.582Z,17.32
2022-09-24T09:59:16.507Z,17.35
2022-09-24T10:00:16.466Z,17.34
2022-09-24T10:01:16.455Z,17.35
2022-09-24T10:02:16.457Z,17.41
2022-09-24T10:03:16.387Z,17.44
2022-09-24T10:04:16.702Z,17.56
2022-09-24T10:05:19.344Z,17.63
2022-09-24T10:06:16.208Z,17.71
2022-09-24T10:07:16.164Z,17.69
2022-09-24T10:08:16.124Z,17.76
2022-09-24T10:09:16.086Z,17.88
2022-09-24T10:10:16.216Z,17.86
2022-09-24T10:11:15.993Z,17.93
2022-09-24T10:12:15.954Z,18.03
2022-09-24T10:13:15.915Z,18.09
2022-09-24T10:14:15.874Z,18.21
2022-09-24T10:15:15.828Z,18.30
2022-09-24T10:16:15.893Z,18.27
2022-09-24T10:17:15.747Z,18.34
2022-09-24T10:18:15.706Z,18.49
2022-09-24T10:19:15.662Z,18.42
2022-09-24T10:20:15.689Z,18.70
2022-09-24T10:21:15.582Z,18.73
2022-09-24T10:22:15.660Z,18.67
2022-09-24T10:23:15.497Z,18.68
2022-09-24T10:24:15.516Z,18.60
2022-09-24T10:25:15.423Z,18.60
2022-09-24T10:26:15.378Z,18.57
2022-09-24T10:27:15.338Z,18.60
2022-09-24T10:28:15.310Z,18.53
2022-09-24T10:29:15.251Z,18.46
2022-09-24T10:30:15.212Z,18.48
2022-09-24T10:31:15.221Z,18.64
2022-09-24T10:32:15.130Z,18.63
2022-09-24T10:33:15.088Z,18.67
2022-09-24T10:34:15.060Z,18.68
2022-09-24T10:35:15.007Z,18.78
2022-09-24T10:36:14.968Z,18.76
2022-09-24T10:37:14.924Z,18.83
2022-09-24T10:38:14.887Z,18.83
2022-09-24T10:39:14.859Z,18.97
2022-09-24T10:40:14.906Z,18.92
2022-09-24T10:41:14.764Z,18.96
2022-09-24T10:42:14.721Z,18.92
2022-09-24T10:43:14.682Z,18.89
2022-09-24T10:44:14.670Z,18.91
2022-09-24T10:45:14.595Z,18.85
2022-09-24T10:46:14.585Z,18.81
2022-09-24T10:47:14.515Z,18.82
2022-09-24T10:48:14.474Z,18.86
2022-09-24T10:49:14.433Z,18.82
2022-09-24T10:50:14.409Z,18.71
2022-09-24T10:51:14.351Z,18.74
2022-09-24T10:52:14.316Z,18.74
2022-09-24T10:53:14.283Z,18.63
2022-09-24T10:54:14.235Z,18.64
2022-09-24T10:55:14.224Z,18.55
2022-09-24T10:56:14.148Z,18.55
2022-09-24T10:57:14.132Z,18.60
2022-09-24T10:58:14.085Z,18.63
2022-09-24T10:59:14.029Z,18.70
2022-09-24T11:00:14.043Z,18.78
2022-09-24T11:01:13.948Z,18.81
2022-09-24T11:02:14.008Z,18.86
2022-09-24T11:03:13.903Z,18.97
2022-09-24T11:04:13.822Z,19.12
2022-09-24T11:05:13.785Z,19.17
2022-09-24T11:06:13.801Z,19.16
2022-09-24T11:07:13.702Z,19.16
2022-09-24T11:08:13.666Z,19.17
2022-09-24T11:09:13.619Z,19.20
2022-09-24T11:10:13.612Z,19.12
2022-09-24T11:11:13.548Z,19.16
2022-09-24T11:12:13.620Z,19.17
2022-09-24T11:13:13.475Z,19.22
2022-09-24T11:14:13.424Z,19.17
2022-09-24T11:15:13.381Z,19.17
2022-09-24T11:16:13.369Z,19.17
2022-09-24T11:17:13.296Z,19.32
2022-09-24T11:18:13.294Z,19.24
2022-09-24T11:19:13.215Z,19.35
2022-09-24T11:20:13.203Z,19.48
2022-09-24T11:21:13.140Z,19.47
2022-09-24T11:22:13.113Z,19.57
2022-09-24T11:23:13.053Z,19.47
2022-09-24T11:24:13.055Z,19.45
2022-09-24T11:25:12.976Z,19.42
2022-09-24T11:26:12.943Z,19.39
2022-09-24T11:27:12.892Z,19.35
2022-09-24T11:28:12.853Z,19.32
2022-09-24T11:29:12.817Z,19.47
2022-09-24T11:30:12.797Z,19.56
2022-09-24T11:31:12.807Z,19.67
2022-09-24T11:32:12.704Z,19.81
2022-09-24T11:33:12.652Z,19.81
2022-09-24T11:34:12.614Z,19.94
2022-09-24T11:35:12.571Z,19.93
2022-09-24T11:36:12.567Z,19.96
2022-09-24T11:37:12.493Z,19.89
2022-09-24T11:38:12.455Z,19.79
2022-09-24T11:39:12.417Z,19.78
2022-09-24T11:40:12.453Z,19.66
2022-09-24T11:41:12.330Z,19.71
2022-09-24T11:42:12.322Z,19.45
2022-09-24T11:43:12.256Z,19.45
2022-09-24T11:44:12.275Z,19.41
2022-09-24T11:45:12.178Z,19.23
2022-09-24T11:46:12.212Z,19.30
2022-09-24T11:47:12.088Z,19.24
2022-09-24T11:48:12.085Z,19.20
2022-09-24T11:49:12.014Z,19.12
2022-09-24T11:50:12.142Z,19.20
2022-09-24T11:51:11.927Z,19.17
2022-09-24T11:52:11.893Z,19.11
2022-09-24T11:53:11.862Z,19.11
2022-09-24T11:54:11.910Z,19.08
2022-09-24T11:55:11.766Z,19.05
2022-09-24T11:56:13.451Z,19.00
2022-09-24T11:57:11.684Z,18.97
2022-09-24T11:58:11.656Z,19.01
2022-09-24T11:59:11.605Z,18.83
2022-09-24T12:00:11.654Z,18.92
2022-09-24T12:01:11.521Z,18.81
2022-09-24T12:02:11.517Z,18.70
2022-09-24T12:03:11.512Z,18.66
2022-09-24T12:04:11.434Z,18.48
2022-09-24T12:05:11.357Z,18.52
2022-09-24T12:06:11.356Z,18.43
2022-09-24T12:07:11.278Z,18.39
2022-09-24T12:08:11.237Z,18.34
2022-09-24T12:09:11.189Z,18.23
2022-09-24T12:10:11.193Z,18.16
2022-09-24T12:11:11.106Z,18.00
2022-09-24T12:12:11.100Z,17.88
2022-09-24T12:13:11.062Z,17.88
2022-09-24T12:14:11.047Z,17.72
2022-09-24T12:15:10.938Z,17.69
2022-09-24T12:16:10.974Z,17.68
2022-09-24T12:17:10.863Z,17.72
2022-09-24T12:18:18.869Z,17.57
2022-09-24T12:19:11.199Z,17.53
2022-09-24T12:20:10.898Z,17.41
2022-09-24T12:21:12.451Z,17.35
2022-09-24T12:22:11.225Z,17.37
2022-09-24T12:23:10.749Z,17.38
2022-09-24T12:24:10.810Z,17.34
2022-09-24T12:25:10.759Z,17.31
2022-09-24T12:26:10.548Z,17.34
2022-09-24T12:27:10.450Z,17.39
2022-09-24T12:28:10.585Z,17.56
2022-09-24T12:29:10.356Z,17.60
2022-09-24T12:30:11.615Z,17.68
2022-09-24T12:31:12.518Z,17.73
2022-09-24T12:32:10.411Z,17.84
2022-09-24T12:33:10.189Z,18.06
2022-09-24T12:34:10.545Z,18.33
2022-09-24T12:35:10.163Z,18.37
2022-09-24T12:36:10.435Z,18.53
2022-09-24T12:37:10.028Z,18.53
2022-09-24T12:38:10.002Z,18.71
2022-09-24T12:39:09.936Z,18.92
2022-09-24T12:40:10.160Z,19.01
2022-09-24T12:41:09.915Z,19.19
2022-09-24T12:42:09.980Z,19.32
2022-09-24T12:43:09.778Z,19.41
2022-09-24T12:44:09.790Z,19.55
2022-09-24T12:45:09.992Z,19.71
2022-09-24T12:46:09.755Z,19.72
2022-09-24T12:47:09.750Z,19.81
2022-09-24T12:48:09.773Z,19.77
2022-09-24T12:49:09.535Z,19.87
2022-09-24T12:50:09.564Z,19.89
2022-09-24T12:51:09.634Z,20.02
2022-09-24T12:52:09.407Z,20.21
2022-09-24T12:53:09.650Z,20.29
2022-09-24T12:54:09.418Z,20.33
2022-09-24T12:55:09.306Z,20.39
2022-09-24T12:56:09.248Z,20.46
2022-09-24T12:57:09.371Z,20.49
2022-09-24T12:58:09.173Z,20.48
2022-09-24T12:59:09.373Z,20.52